Time;durP1;ratioP1;P1;durP2;ratioP2;P2;SDS_P1;SDS_P2;PMS_P1;PMS_P2;Temp;Humidity;BMP_temperature;BMP_pressure;BME280_temperature;BME280_humidity;BME280_pressure;Samples;Min_cycle;Max_cycle;Signal;HPM_P1;HPM_P2
2022/06/10 00:00:19;;;;;;;23.98;6.47;;;27.20;93.50;;;;;;5103557;28;20024;-59
2022/06/10 00:02:45;;;;;;;26.58;6.57;;;27.20;93.40;;;;;;5103674;28;20081;-58
2022/06/10 00:05:19;;;;;;;33.20;7.97;;;27.20;93.30;;;;;;5103691;28;20299;-59
2022/06/10 00:07:46;;;;;;;41.42;8.23;;;27.20;93.40;;;;;;5103547;28;20020;-59
2022/06/10 00:10:14;;;;;;;27.73;6.78;;;27.20;93.30;;;;;;5103307;28;20016;-63
2022/06/10 00:12:41;;;;;;;27.63;7.00;;;27.20;93.30;;;;;;5103399;28;20008;-57
2022/06/10 00:15:10;;;;;;;34.97;7.40;;;27.20;93.40;;;;;;5105410;28;20098;-56
2022/06/10 00:17:38;;;;;;;33.90;6.82;;;27.10;93.30;;;;;;5086881;28;20029;-57
2022/06/10 00:20:06;;;;;;;34.28;6.82;;;27.10;93.30;;;;;;5087114;28;20021;-56
2022/06/10 00:22:33;;;;;;;33.75;5.63;;;27.10;93.40;;;;;;5106781;28;20016;-55
2022/06/10 00:24:59;;;;;;;24.00;5.53;;;27.10;93.30;;;;;;5106675;28;20255;-56
2022/06/10 00:27:26;;;;;;;23.33;5.90;;;27.10;93.40;;;;;;5101966;28;20047;-57
2022/06/10 00:29:54;;;;;;;18.42;4.93;;;27.00;93.10;;;;;;5086903;28;20028;-55
2022/06/10 00:32:20;;;;;;;18.20;4.63;;;27.00;93.20;;;;;;5104501;28;20020;-56
2022/06/10 00:34:47;;;;;;;20.77;4.85;;;26.90;93.00;;;;;;5107137;28;20028;-57
2022/06/10 00:37:13;;;;;;;21.30;5.25;;;26.90;93.10;;;;;;5106679;28;20062;-57
2022/06/10 00:39:40;;;;;;;17.17;5.10;;;26.90;93.10;;;;;;5106621;28;20024;-57
2022/06/10 00:42:08;;;;;;;21.33;4.82;;;26.90;92.90;;;;;;5106672;28;20197;-56
2022/06/10 00:44:48;;;;;;;19.80;5.18;;;26.90;92.80;;;;;;5106817;28;20096;-55
2022/06/10 00:47:23;;;;;;;20.02;4.95;;;26.90;92.60;;;;;;5106475;28;20024;-58
2022/06/10 00:50:22;;;;;;;18.08;4.82;;;26.90;92.40;;;;;;5106946;28;20316;-56
2022/06/10 00:53:01;;;;;;;21.67;4.72;;;26.90;92.50;;;;;;5102689;28;20040;-59
2022/06/10 00:55:29;;;;;;;16.55;4.25;;;26.90;92.50;;;;;;5105772;28;20030;-57
2022/06/10 00:58:29;;;;;;;15.10;4.00;;;26.90;92.30;;;;;;5105715;28;20053;-59
2022/06/10 01:00:56;;;;;;;20.15;4.57;;;26.90;92.10;;;;;;5106144;28;20027;-58
2022/06/10 01:03:23;;;;;;;18.88;4.35;;;26.90;92.10;;;;;;5105841;28;20087;-60
2022/06/10 01:05:49;;;;;;;17.95;4.45;;;26.90;92.00;;;;;;5098229;28;20024;-63
2022/06/10 01:08:19;;;;;;;20.23;4.80;;;26.80;92.00;;;;;;5103747;28;20242;-59
2022/06/10 01:11:05;;;;;;;26.48;5.63;;;26.80;91.80;;;;;;5103032;28;20028;-58
2022/06/10 01:14:12;;;;;;;20.58;5.07;;;26.70;91.90;;;;;;5063917;28;20038;-55
2022/06/10 01:17:25;;;;;;;23.85;5.75;;;26.70;92.00;;;;;;5090128;28;20121;-56
2022/06/10 01:20:23;;;;;;;25.20;6.55;;;26.70;92.00;;;;;;5085567;28;20029;-57
2022/06/10 01:23:19;;;;;;;57.38;12.73;;;26.70;91.90;;;;;;5085167;28;20024;-58
2022/06/10 01:26:26;;;;;;;58.85;14.38;;;26.70;91.80;;;;;;5084790;28;20023;-59
2022/06/10 01:29:13;;;;;;;58.50;13.05;;;26.70;92.00;;;;;;5084882;28;20267;-58
2022/06/10 01:31:57;;;;;;;43.97;11.07;;;26.70;91.70;;;;;;5085470;28;20046;-57
2022/06/10 01:34:33;;;;;;;42.40;8.15;;;26.70;91.70;;;;;;5091491;28;20016;-56
2022/06/10 01:37:11;;;;;;;34.90;8.20;;;26.60;91.90;;;;;;5102402;28;20365;-57
2022/06/10 01:40:04;;;;;;;26.65;6.28;;;26.60;92.00;;;;;;5105438;28;20079;-55
2022/06/10 01:42:49;;;;;;;24.55;5.80;;;26.60;91.90;;;;;;5105817;28;20020;-56
2022/06/10 01:45:37;;;;;;;22.40;5.38;;;26.60;92.00;;;;;;5105690;28;20020;-57
2022/06/10 01:48:03;;;;;;;19.80;5.30;;;26.70;91.80;;;;;;5105632;28;20328;-57
2022/06/10 01:50:44;;;;;;;20.40;4.95;;;26.70;91.90;;;;;;5105974;28;20291;-56
2022/06/10 01:53:33;;;;;;;19.45;4.93;;;26.80;92.00;;;;;;5105293;28;20048;-56
2022/06/10 01:56:09;;;;;;;16.45;4.38;;;26.80;92.00;;;;;;5105398;28;20189;-56
2022/06/10 01:59:06;;;;;;;20.40;4.53;;;26.70;92.10;;;;;;5105250;28;20051;-58
2022/06/10 02:01:36;;;;;;;16.55;4.25;;;26.70;92.10;;;;;;5105439;28;20027;-55
2022/06/10 02:04:18;;;;;;;22.35;4.50;;;26.70;92.10;;;;;;5104926;28;20020;-56
2022/06/10 02:06:48;;;;;;;21.23;4.20;;;26.70;91.80;;;;;;5105252;28;20050;-56
2022/06/10 02:09:29;;;;;;;19.77;3.92;;;26.70;91.60;;;;;;5104427;28;20383;-58
2022/06/10 02:12:01;;;;;;;18.63;4.40;;;26.70;91.60;;;;;;5100877;28;20066;-54
2022/06/10 02:14:33;;;;;;;33.85;4.40;;;26.70;91.60;;;;;;5099917;28;20059;-56
2022/06/10 02:17:01;;;;;;;25.80;4.28;;;26.70;91.60;;;;;;5094325;28;20028;-56
2022/06/10 02:19:46;;;;;;;30.23;5.18;;;26.70;91.50;;;;;;5090016;28;20171;-58
2022/06/10 02:22:26;;;;;;;19.58;4.15;;;26.60;91.40;;;;;;5093111;28;20038;-56
2022/06/10 02:25:18;;;;;;;18.85;4.10;;;26.60;91.40;;;;;;5091047;28;20196;-57
2022/06/10 02:27:53;;;;;;;20.63;4.28;;;26.60;91.30;;;;;;5092074;28;20027;-58
2022/06/10 02:30:59;;;;;;;18.75;3.83;;;26.60;91.30;;;;;;5099669;28;20055;-55
2022/06/10 02:33:26;;;;;;;19.98;4.45;;;26.60;91.10;;;;;;5064343;28;20031;-56
2022/06/10 02:36:23;;;;;;;20.10;4.45;;;26.60;91.20;;;;;;5096459;28;20297;-56
2022/06/10 02:39:02;;;;;;;18.48;3.53;;;26.60;91.30;;;;;;5092657;28;20027;-54
2022/06/10 02:41:42;;;;;;;16.75;3.45;;;26.60;91.10;;;;;;5095876;28;20033;-59
2022/06/10 02:44:27;;;;;;;20.70;4.70;;;26.60;91.10;;;;;;5092836;28;20008;-58
2022/06/10 02:47:18;;;;;;;20.73;4.72;;;26.60;91.10;;;;;;5098099;28;20020;-56
2022/06/10 02:49:45;;;;;;;23.67;4.72;;;26.70;91.40;;;;;;5100121;28;20063;-55
2022/06/10 02:52:14;;;;;;;16.08;4.43;;;26.60;91.50;;;;;;5104502;28;20047;-55
2022/06/10 02:54:43;;;;;;;21.08;4.88;;;26.60;91.40;;;;;;5103987;28;20024;-55
2022/06/10 02:57:19;;;;;;;17.67;4.40;;;26.60;91.40;;;;;;5104353;28;20016;-56
2022/06/10 03:02:52;;;;;;;17.38;4.43;;;26.60;91.30;;;;;;5104359;28;20038;-59
2022/06/10 03:05:34;;;;;;;17.60;4.07;;;26.60;91.40;;;;;;5104191;28;20300;-56
2022/06/10 03:08:03;;;;;;;18.60;4.43;;;26.60;91.50;;;;;;5103849;28;20020;-55
2022/06/10 03:11:06;;;;;;;15.60;4.32;;;26.60;91.50;;;;;;5104186;28;20193;-56
2022/06/10 03:13:51;;;;;;;17.10;4.25;;;26.60;91.50;;;;;;5097269;28;20046;-55
2022/06/10 03:16:37;;;;;;;19.42;3.85;;;26.60;91.40;;;;;;5083819;28;20052;-57
2022/06/10 03:19:22;;;;;;;20.65;4.13;;;26.50;91.40;;;;;;5091261;28;20100;-56
2022/06/10 03:22:04;;;;;;;14.48;3.53;;;26.60;91.40;;;;;;5104229;28;20028;-51
2022/06/10 03:24:46;;;;;;;17.13;4.07;;;26.60;91.40;;;;;;5103494;28;20020;-52
2022/06/10 03:27:24;;;;;;;17.85;4.07;;;26.60;91.30;;;;;;5103964;28;20253;-51
2022/06/10 03:29:56;;;;;;;18.02;4.47;;;26.70;91.30;;;;;;5104132;28;20024;-52
2022/06/10 03:32:22;;;;;;;19.90;4.05;;;26.70;91.30;;;;;;5104031;28;20272;-54
2022/06/10 03:34:55;;;;;;;21.42;4.57;;;26.70;91.20;;;;;;5103619;28;20204;-53
2022/06/10 03:37:22;;;;;;;18.25;4.43;;;26.70;91.20;;;;;;5103735;28;20027;-52
2022/06/10 03:39:54;;;;;;;22.42;4.85;;;26.80;91.10;;;;;;5103434;28;20398;-53
2022/06/10 03:42:22;;;;;;;21.25;4.75;;;26.80;91.10;;;;;;5103823;28;20126;-52
2022/06/10 03:44:54;;;;;;;18.13;5.28;;;26.80;91.00;;;;;;5103839;28;20039;-52
2022/06/10 03:47:27;;;;;;;17.08;4.80;;;26.70;91.00;;;;;;5103663;28;20020;-60
2022/06/10 03:50:05;;;;;;;20.60;4.45;;;26.80;91.10;;;;;;5106680;28;20084;-52
2022/06/10 03:52:36;;;;;;;21.52;5.35;;;26.80;91.10;;;;;;5107837;28;20064;-51
2022/06/10 03:55:07;;;;;;;19.63;5.45;;;26.80;91.10;;;;;;5107921;28;20095;-52
2022/06/10 03:57:34;;;;;;;32.67;5.50;;;26.80;91.00;;;;;;5107779;28;20058;-53
2022/06/10 04:00:01;;;;;;;20.73;5.18;;;26.70;90.90;;;;;;5107736;28;20020;-53
2022/06/10 04:02:28;;;;;;;21.63;5.30;;;26.80;90.90;;;;;;5107871;28;20022;-54
2022/06/10 04:04:54;;;;;;;23.30;4.80;;;26.80;90.80;;;;;;5107438;28;20030;-54
2022/06/10 04:07:21;;;;;;;20.63;4.82;;;26.70;90.80;;;;;;5107229;28;20316;-53
2022/06/10 04:09:48;;;;;;;24.80;5.20;;;26.80;90.70;;;;;;5119282;28;20031;-55
2022/06/10 04:12:19;;;;;;;17.90;5.15;;;26.70;90.70;;;;;;5128017;28;20026;-53
2022/06/10 04:14:46;;;;;;;22.90;4.30;;;26.80;90.60;;;;;;5114229;28;20216;-53
2022/06/10 04:17:12;;;;;;;22.95;5.35;;;26.80;90.60;;;;;;5107370;28;20083;-60
2022/06/10 04:19:39;;;;;;;25.10;6.22;;;26.80;90.60;;;;;;5107281;28;20239;-54
2022/06/10 04:22:06;;;;;;;29.73;5.32;;;26.80;90.50;;;;;;5107116;28;20016;-53
2022/06/10 04:24:32;;;;;;;16.75;5.00;;;26.80;90.60;;;;;;5107025;28;20024;-57
2022/06/10 04:26:59;;;;;;;25.90;5.60;;;26.80;90.40;;;;;;5107396;28;20020;-53
2022/06/10 04:29:25;;;;;;;27.45;5.30;;;26.80;90.40;;;;;;5106940;28;20087;-52
2022/06/10 04:31:52;;;;;;;27.42;5.85;;;26.70;90.40;;;;;;5107038;28;20023;-55
2022/06/10 04:34:18;;;;;;;22.80;5.65;;;26.80;90.40;;;;;;5106993;28;20196;-52
2022/06/10 04:36:45;;;;;;;23.92;5.90;;;26.80;90.50;;;;;;5107092;28;20301;-53
2022/06/10 04:39:12;;;;;;;18.70;5.40;;;26.80;90.50;;;;;;5106282;28;20016;-52
2022/06/10 04:41:39;;;;;;;24.83;5.82;;;26.70;90.50;;;;;;5107059;28;20043;-53
2022/06/10 04:44:05;;;;;;;24.63;5.38;;;26.80;90.60;;;;;;5105389;28;20012;-59
2022/06/10 04:46:39;;;;;;;26.05;4.63;;;26.70;90.60;;;;;;5106882;28;20308;-57
2022/06/10 04:49:06;;;;;;;19.25;4.78;;;26.70;90.60;;;;;;5107031;28;20047;-53
2022/06/10 04:51:34;;;;;;;21.00;5.75;;;26.70;90.50;;;;;;5106597;28;20024;-54
2022/06/10 04:54:03;;;;;;;18.30;5.22;;;26.70;90.50;;;;;;5107129;28;20204;-52
2022/06/10 04:56:30;;;;;;;22.33;5.30;;;26.70;90.40;;;;;;5093983;28;20100;-55
2022/06/10 04:58:57;;;;;;;20.58;5.18;;;26.70;90.40;;;;;;5086099;28;20013;-53
2022/06/10 05:01:24;;;;;;;25.13;5.53;;;26.70;90.50;;;;;;5086519;28;20256;-53
2022/06/10 05:03:50;;;;;;;24.02;4.85;;;26.70;90.50;;;;;;5086976;28;20016;-55
2022/06/10 05:06:17;;;;;;;23.45;5.05;;;26.70;90.40;;;;;;5087151;28;20344;-53
2022/06/10 05:08:44;;;;;;;25.55;5.43;;;26.70;90.40;;;;;;5086828;28;20068;-51
2022/06/10 05:11:11;;;;;;;22.15;5.25;;;26.70;90.40;;;;;;5087223;28;20028;-57
2022/06/10 05:13:37;;;;;;;21.40;5.57;;;26.70;90.30;;;;;;5086244;28;20092;-53
2022/06/10 05:16:05;;;;;;;22.08;4.93;;;26.60;90.40;;;;;;5086539;28;20045;-53
2022/06/10 05:18:32;;;;;;;25.05;5.32;;;26.70;90.40;;;;;;5086668;28;20013;-55
2022/06/10 05:20:59;;;;;;;23.10;5.22;;;26.60;90.40;;;;;;5086883;28;20086;-54
2022/06/10 05:23:27;;;;;;;19.90;5.03;;;26.60;90.40;;;;;;5086597;28;20016;-53
2022/06/10 05:25:54;;;;;;;23.30;5.00;;;26.60;90.40;;;;;;5086785;28;20028;-53
2022/06/10 05:28:22;;;;;;;23.65;4.80;;;26.60;90.70;;;;;;5085594;28;20020;-56
2022/06/10 05:30:49;;;;;;;21.90;5.22;;;26.60;90.40;;;;;;5086232;28;20029;-53
2022/06/10 05:33:16;;;;;;;24.58;4.90;;;26.60;90.50;;;;;;5085856;28;20023;-53
2022/06/10 05:35:43;;;;;;;22.67;5.38;;;26.60;90.40;;;;;;5085924;28;20346;-53
2022/06/10 05:38:11;;;;;;;19.00;5.43;;;26.60;90.50;;;;;;5085707;28;20020;-57
2022/06/10 05:40:38;;;;;;;24.40;5.70;;;26.60;90.30;;;;;;5086160;28;20209;-53
2022/06/10 05:43:05;;;;;;;27.92;6.05;;;26.60;90.30;;;;;;5085258;28;20036;-54
2022/06/10 05:45:32;;;;;;;21.20;5.40;;;26.60;90.50;;;;;;5085832;28;20024;-54
2022/06/10 05:48:01;;;;;;;22.55;5.55;;;26.60;90.20;;;;;;5085485;28;20212;-54
2022/06/10 05:50:40;;;;;;;28.67;5.78;;;26.60;90.10;;;;;;5085663;28;20024;-55
2022/06/10 05:53:10;;;;;;;25.88;5.47;;;26.60;90.10;;;;;;5085466;28;20013;-56
2022/06/10 05:55:38;;;;;;;21.83;5.43;;;26.60;90.20;;;;;;5085462;28;20088;-52
2022/06/10 05:58:05;;;;;;;28.52;6.28;;;26.60;90.10;;;;;;5085233;28;20017;-54
2022/06/10 06:00:32;;;;;;;22.73;5.10;;;26.60;90.10;;;;;;5085559;28;20366;-54
2022/06/10 06:02:59;;;;;;;22.35;5.22;;;26.60;90.00;;;;;;5085099;28;20340;-52
2022/06/10 06:05:26;;;;;;;22.85;5.30;;;26.60;90.00;;;;;;5085554;28;20247;-52
2022/06/10 06:07:53;;;;;;;25.08;6.25;;;26.60;90.10;;;;;;5085061;28;20075;-53
2022/06/10 06:10:22;;;;;;;21.60;5.60;;;26.60;90.00;;;;;;5085343;28;20281;-54
2022/06/10 06:12:49;;;;;;;24.48;5.95;;;26.60;90.00;;;;;;5084573;28;20023;-53
2022/06/10 06:15:17;;;;;;;29.35;6.03;;;26.60;90.00;;;;;;5084773;28;20048;-54
2022/06/10 06:17:43;;;;;;;29.77;6.10;;;26.60;90.00;;;;;;5084684;28;20129;-53
2022/06/10 06:20:13;;;;;;;23.23;5.97;;;26.60;89.90;;;;;;5085147;28;20293;-54
2022/06/10 06:22:40;;;;;;;24.95;5.88;;;26.50;89.80;;;;;;5084820;28;20084;-52
2022/06/10 06:25:08;;;;;;;28.42;5.88;;;26.60;89.70;;;;;;5084842;28;20088;-53
2022/06/10 06:27:34;;;;;;;28.38;6.10;;;26.60;89.80;;;;;;5084316;28;20017;-56
2022/06/10 06:30:01;;;;;;;26.92;6.75;;;26.60;89.90;;;;;;5084864;28;20032;-52
2022/06/10 06:32:28;;;;;;;28.00;6.47;;;26.60;89.90;;;;;;5084743;28;20304;-50
2022/06/10 06:34:54;;;;;;;24.92;6.00;;;26.50;89.90;;;;;;5084736;28;20059;-56
2022/06/10 06:37:21;;;;;;;24.52;5.93;;;26.50;89.70;;;;;;5084494;28;20084;-52
2022/06/10 06:39:48;;;;;;;33.55;7.53;;;26.50;89.80;;;;;;5084568;28;20054;-52
2022/06/10 06:42:15;;;;;;;24.42;5.93;;;26.50;90.00;;;;;;5084020;28;20012;-55
2022/06/10 06:44:42;;;;;;;24.40;5.90;;;26.50;89.90;;;;;;5084573;28;20032;-52
2022/06/10 06:47:13;;;;;;;26.98;5.80;;;26.50;90.00;;;;;;5084373;28;20031;-53
2022/06/10 06:49:41;;;;;;;21.13;5.75;;;26.50;90.00;;;;;;5084501;28;20028;-52
2022/06/10 06:52:08;;;;;;;25.35;5.22;;;26.50;90.00;;;;;;5084341;28;20027;-53
2022/06/10 06:54:36;;;;;;;25.25;5.70;;;26.50;90.00;;;;;;5084112;28;20052;-55
2022/06/10 06:57:03;;;;;;;25.63;5.63;;;26.50;90.00;;;;;;5083674;28;20026;-52
2022/06/10 06:59:31;;;;;;;26.27;5.68;;;26.50;90.00;;;;;;5084455;28;20354;-53
2022/06/10 07:01:58;;;;;;;20.67;5.43;;;26.50;90.00;;;;;;5083952;28;20062;-55
2022/06/10 07:04:24;;;;;;;29.27;5.97;;;26.50;90.00;;;;;;5084114;28;20039;-55
2022/06/10 07:06:51;;;;;;;27.45;5.53;;;26.50;89.80;;;;;;5084000;28;20066;-56
2022/06/10 07:09:17;;;;;;;30.33;5.97;;;26.50;89.80;;;;;;5084069;28;20066;-51
2022/06/10 07:11:44;;;;;;;23.23;5.50;;;26.50;89.70;;;;;;5083944;28;20021;-52
2022/06/10 07:14:12;;;;;;;25.52;5.85;;;26.50;89.80;;;;;;5083963;28;20017;-54
2022/06/10 07:16:39;;;;;;;25.05;5.88;;;26.50;89.70;;;;;;5083725;28;20045;-53
2022/06/10 07:19:06;;;;;;;27.85;6.25;;;26.50;89.60;;;;;;5083842;28;20210;-53
2022/06/10 07:21:33;;;;;;;23.33;5.63;;;26.50;89.70;;;;;;5084204;28;20031;-54
2022/06/10 07:24:00;;;;;;;26.23;5.43;;;26.50;89.60;;;;;;5083528;28;20070;-52
2022/06/10 07:26:27;;;;;;;21.95;5.47;;;26.50;89.70;;;;;;5084483;28;20283;-52
2022/06/10 07:28:53;;;;;;;24.98;5.15;;;26.50;89.50;;;;;;5084081;28;20025;-55
2022/06/10 07:31:20;;;;;;;22.25;6.10;;;26.50;89.60;;;;;;5084360;28;20024;-52
2022/06/10 07:33:46;;;;;;;31.10;6.28;;;26.50;89.40;;;;;;5083683;28;20321;-53
2022/06/10 07:36:13;;;;;;;23.13;5.32;;;26.50;89.30;;;;;;5084190;28;20024;-57
2022/06/10 07:38:39;;;;;;;33.13;5.90;;;26.40;89.30;;;;;;5083782;28;20013;-52
2022/06/10 07:43:51;;;;;;;26.63;5.97;;;26.50;89.30;;;;;;5083753;28;20093;-54
2022/06/10 07:46:20;;;;;;;25.20;6.78;;;26.40;89.00;;;;;;5084020;28;20027;-55
2022/06/10 07:48:47;;;;;;;25.17;5.70;;;26.40;89.10;;;;;;5083677;28;20024;-55
2022/06/10 07:51:14;;;;;;;27.60;6.32;;;26.40;88.90;;;;;;5084136;28;20100;-54
2022/06/10 07:53:41;;;;;;;24.67;6.28;;;26.40;88.90;;;;;;5083433;28;20358;-54
2022/06/10 07:56:09;;;;;;;30.00;5.95;;;26.50;89.10;;;;;;5083935;28;20127;-54
2022/06/10 07:58:36;;;;;;;26.30;6.03;;;26.50;89.10;;;;;;5083574;28;20027;-52
2022/06/10 08:01:02;;;;;;;27.90;6.22;;;26.40;89.20;;;;;;5083865;28;20017;-54
2022/06/10 08:03:29;;;;;;;25.08;6.00;;;26.40;89.00;;;;;;5083751;28;20020;-57
2022/06/10 08:05:58;;;;;;;24.98;6.07;;;26.40;89.00;;;;;;5084096;28;20028;-52
2022/06/10 08:08:25;;;;;;;26.35;6.22;;;26.40;89.00;;;;;;5083297;28;20320;-53
2022/06/10 08:10:52;;;;;;;26.00;5.93;;;26.50;89.00;;;;;;5083788;28;20052;-53
2022/06/10 08:16:40;;;;;;;25.25;6.55;;;26.40;88.60;;;;;;5083101;28;20091;-52
2022/06/10 08:19:07;;;;;;;25.58;6.15;;;26.40;88.80;;;;;;5083346;28;20013;-53
2022/06/10 08:24:21;;;;;;;31.52;6.38;;;26.40;88.90;;;;;;5083453;28;20024;-52
2022/06/10 08:26:49;;;;;;;26.55;6.18;;;26.40;88.80;;;;;;5082989;28;20066;-52
2022/06/10 08:29:16;;;;;;;27.15;6.57;;;26.40;88.70;;;;;;5083470;28;20066;-52
2022/06/10 08:31:43;;;;;;;30.63;5.85;;;26.40;88.90;;;;;;5083254;28;20032;-53
2022/06/10 08:34:09;;;;;;;26.38;6.30;;;26.40;89.10;;;;;;5083262;28;20301;-55
2022/06/10 08:36:37;;;;;;;27.77;5.95;;;26.40;89.10;;;;;;5085453;28;20245;-52
2022/06/10 08:39:04;;;;;;;29.63;7.07;;;26.40;89.00;;;;;;5086803;28;20032;-53
2022/06/10 08:42:08;;;;;;;25.65;5.90;;;26.40;89.10;;;;;;5086513;28;20040;-56
2022/06/10 08:44:57;;;;;;;26.05;6.28;;;26.40;88.90;;;;;;5086993;28;20024;-53
2022/06/10 08:47:44;;;;;;;27.75;6.15;;;26.40;89.10;;;;;;5086589;28;20020;-54
2022/06/10 08:50:46;;;;;;;29.75;6.35;;;26.40;89.30;;;;;;5086535;28;20028;-52
2022/06/10 08:53:37;;;;;;;29.00;6.18;;;26.40;89.30;;;;;;5086747;28;20351;-53
2022/06/10 08:56:18;;;;;;;28.67;6.25;;;26.40;89.50;;;;;;5086510;28;20051;-53
2022/06/10 08:58:59;;;;;;;27.50;6.57;;;26.30;89.60;;;;;;5086348;28;20231;-51
2022/06/10 09:01:29;;;;;;;27.20;6.63;;;26.30;89.60;;;;;;5086910;28;20020;-56
2022/06/10 09:04:16;;;;;;;23.08;5.70;;;26.40;89.70;;;;;;5086355;28;20024;-57
2022/06/10 09:06:56;;;;;;;23.63;5.72;;;26.30;89.70;;;;;;5086384;28;20048;-53
2022/06/10 09:09:26;;;;;;;25.05;6.10;;;26.30;90.00;;;;;;5086166;28;20016;-54
2022/06/10 09:12:15;;;;;;;23.63;5.55;;;26.30;90.00;;;;;;5085876;28;20331;-52
2022/06/10 09:14:42;;;;;;;25.38;5.80;;;26.30;90.10;;;;;;5085913;28;20033;-62
2022/06/10 09:17:24;;;;;;;23.58;5.35;;;26.30;90.00;;;;;;5086082;28;20085;-53
2022/06/10 09:20:01;;;;;;;29.95;6.25;;;26.30;89.80;;;;;;5086182;28;20031;-55
2022/06/10 09:22:51;;;;;;;24.88;5.10;;;26.30;89.80;;;;;;5086051;28;20066;-56
2022/06/10 09:25:23;;;;;;;23.95;5.80;;;26.30;89.80;;;;;;5085749;28;20328;-59
2022/06/10 09:27:55;;;;;;;25.52;6.13;;;26.30;89.40;;;;;;5085945;28;20028;-54
2022/06/10 09:30:30;;;;;;;23.95;5.43;;;26.30;89.40;;;;;;5085996;28;20221;-51
2022/06/10 09:33:04;;;;;;;27.33;5.88;;;26.30;89.30;;;;;;5085800;28;20024;-53
2022/06/10 09:36:01;;;;;;;22.90;5.18;;;26.30;89.00;;;;;;5085736;28;20036;-53
2022/06/10 09:38:30;;;;;;;25.90;6.28;;;26.30;89.00;;;;;;5085779;28;20036;-52
2022/06/10 09:41:41;;;;;;;19.73;5.05;;;26.30;88.70;;;;;;5085609;28;20065;-53
2022/06/10 09:44:52;;;;;;;25.65;5.75;;;26.30;88.30;;;;;;5023869;28;20029;-53
2022/06/10 09:47:37;;;;;;;26.48;6.00;;;26.30;88.40;;;;;;5023617;28;20026;-52
2022/06/10 09:50:19;;;;;;;24.40;6.15;;;26.30;88.20;;;;;;5023868;28;20030;-53
2022/06/10 09:53:06;;;;;;;29.30;6.55;;;26.30;88.40;;;;;;5067743;28;20087;-54
2022/06/10 09:55:58;;;;;;;28.42;6.18;;;26.30;88.00;;;;;;5085241;28;20260;-53
2022/06/10 09:58:36;;;;;;;;;;;26.20;87.80;;;;;;5085834;28;20020;-56
2022/06/10 10:01:32;;;;;;;29.58;7.32;;;26.20;87.80;;;;;;5085553;28;20152;-54
2022/06/10 10:04:20;;;;;;;27.65;6.47;;;26.20;88.50;;;;;;5085145;28;20072;-52
2022/06/10 10:07:07;;;;;;;27.50;6.50;;;26.20;87.80;;;;;;5085073;28;19908;-54
2022/06/10 10:10:07;;;;;;;31.05;7.22;;;26.20;87.90;;;;;;5085087;28;20029;-53
2022/06/10 10:13:00;;;;;;;26.20;6.70;;;26.20;88.40;;;;;;5084877;28;20020;-53
2022/06/10 10:15:31;;;;;;;30.60;8.43;;;26.20;87.90;;;;;;5084824;28;20049;-53
2022/06/10 10:18:07;;;;;;;33.90;6.70;;;26.10;87.80;;;;;;5084663;28;20032;-53
2022/06/10 10:21:08;;;;;;;37.42;7.80;;;26.20;87.90;;;;;;5085004;28;20032;-55
2022/06/10 10:23:36;;;;;;;36.20;8.50;;;26.20;87.90;;;;;;5082174;28;20024;-53
2022/06/10 10:26:24;;;;;;;42.35;8.50;;;26.10;88.00;;;;;;5084936;28;20040;-52
2022/06/10 10:29:04;;;;;;;33.90;7.60;;;26.10;88.10;;;;;;5084956;28;20301;-54
2022/06/10 10:31:38;;;;;;;36.78;8.20;;;26.10;87.90;;;;;;5084543;28;20388;-51
2022/06/10 10:34:06;;;;;;;32.35;7.90;;;26.10;88.00;;;;;;5084502;28;20185;-52
2022/06/10 10:36:52;;;;;;;33.17;8.02;;;26.10;87.90;;;;;;5084440;28;20020;-57
2022/06/10 10:39:38;;;;;;;35.75;8.02;;;26.10;87.90;;;;;;5084546;28;20021;-62
2022/06/10 10:42:22;;;;;;;39.20;8.88;;;26.10;87.80;;;;;;5084293;28;20023;-53
2022/06/10 10:45:06;;;;;;;34.72;8.00;;;26.10;87.60;;;;;;5084538;28;20051;-55
2022/06/10 10:47:35;;;;;;;35.17;8.30;;;26.20;87.70;;;;;;5084390;28;20083;-54
2022/06/10 10:50:04;;;;;;;41.42;8.80;;;26.10;87.70;;;;;;5084509;28;20088;-53
2022/06/10 10:52:44;;;;;;;36.65;9.27;;;26.10;87.50;;;;;;5084254;28;20013;-53
2022/06/10 10:55:13;;;;;;;36.03;8.57;;;26.10;87.30;;;;;;5084096;28;20035;-53
2022/06/10 10:58:04;;;;;;;38.20;8.50;;;26.10;87.30;;;;;;5083664;28;20036;-51
2022/06/10 11:00:41;;;;;;;34.88;8.68;;;26.10;87.40;;;;;;5084110;28;20095;-53
2022/06/10 11:03:24;;;;;;;41.75;8.80;;;26.20;87.40;;;;;;5084031;28;20016;-53
2022/06/10 11:05:52;;;;;;;42.95;9.10;;;26.20;87.30;;;;;;5084540;28;20305;-55
2022/06/10 11:08:28;;;;;;;39.55;8.73;;;26.10;87.10;;;;;;5083950;28;20021;-58
2022/06/10 11:11:11;;;;;;;47.53;9.15;;;26.20;87.00;;;;;;5084021;28;20025;-52
2022/06/10 11:13:44;;;;;;;36.50;8.27;;;26.20;86.70;;;;;;5083869;28;20051;-55
2022/06/10 11:16:22;;;;;;;;;;;26.20;87.00;;;;;;5084209;28;20059;-64
2022/06/10 11:18:53;;;;;;;38.90;9.30;;;26.20;86.80;;;;;;5083777;28;19939;-58
2022/06/10 11:21:27;;;;;;;43.60;9.95;;;26.10;86.80;;;;;;5084427;28;20013;-59
2022/06/10 11:23:58;;;;;;;41.55;9.32;;;26.20;86.90;;;;;;5083917;28;20031;-56
2022/06/10 11:26:26;;;;;;;38.63;9.48;;;26.20;87.00;;;;;;5083963;28;20216;-64
2022/06/10 11:29:07;;;;;;;38.15;9.70;;;26.20;86.60;;;;;;5082545;28;20062;-58
2022/06/10 11:31:47;;;;;;;42.50;9.75;;;26.20;86.70;;;;;;5081922;28;20040;-59
2022/06/10 11:34:35;;;;;;;49.10;9.65;;;26.20;87.00;;;;;;5082082;28;20313;-54
2022/06/10 11:37:23;;;;;;;53.78;10.43;;;26.30;87.90;;;;;;5083113;28;20035;-60
2022/06/10 11:39:59;;;;;;;41.60;9.82;;;26.30;88.00;;;;;;5083741;28;20020;-58
2022/06/10 11:43:02;;;;;;;46.25;10.35;;;26.30;88.20;;;;;;5083631;28;20021;-57
2022/06/10 11:45:49;;;;;;;43.58;9.60;;;26.30;88.20;;;;;;5084096;28;20021;-57
2022/06/10 11:48:28;;;;;;;45.78;8.98;;;26.30;88.20;;;;;;5052784;28;20033;-61
2022/06/10 11:51:06;;;;;;;43.17;10.63;;;26.30;88.40;;;;;;5083973;28;20020;-57
2022/06/10 11:53:45;;;;;;;48.22;10.82;;;26.30;88.90;;;;;;5083429;28;20079;-56
2022/06/10 11:59:44;;;;;;;46.30;11.10;;;26.30;89.50;;;;;;5083659;28;20338;-58
2022/06/10 12:02:34;;;;;;;41.75;10.70;;;26.30;89.30;;;;;;5083346;28;20024;-56
2022/06/10 12:05:24;;;;;;;51.40;11.13;;;26.40;89.20;;;;;;5083393;28;20083;-57
2022/06/10 12:07:56;;;;;;;43.45;11.00;;;26.40;88.80;;;;;;5083380;28;20333;-56
2022/06/10 12:10:27;;;;;;;49.85;11.02;;;26.40;89.10;;;;;;5085306;28;20024;-55
2022/06/10 12:12:56;;;;;;;41.53;11.07;;;26.40;89.30;;;;;;5087325;28;20142;-56
2022/06/10 12:15:30;;;;;;;47.42;11.63;;;26.40;89.50;;;;;;5086947;28;20057;-59
2022/06/10 12:18:03;;;;;;;44.72;11.70;;;26.50;89.50;;;;;;5086913;28;20036;-57
2022/06/10 12:20:47;;;;;;;49.50;11.73;;;26.50;89.60;;;;;;5087377;28;20088;-58
2022/06/10 12:23:30;;;;;;;49.65;11.68;;;26.50;89.60;;;;;;5087268;28;20020;-60
2022/06/10 12:26:51;;;;;;;53.70;11.68;;;26.60;89.60;;;;;;5087329;28;20050;-58
2022/06/10 12:29:52;;;;;;;47.30;11.57;;;26.60;89.60;;;;;;5045040;28;20225;-56
2022/06/10 12:35:44;;;;;;;44.17;10.93;;;26.60;89.50;;;;;;5087092;28;20034;-57
2022/06/10 12:38:21;;;;;;;45.53;10.70;;;26.70;89.70;;;;;;5086820;28;20033;-58
2022/06/10 12:41:11;;;;;;;48.33;10.85;;;26.80;89.80;;;;;;5087187;28;20023;-55
2022/06/10 12:43:42;;;;;;;48.78;10.05;;;26.80;89.80;;;;;;5086735;28;20309;-58
2022/06/10 12:46:33;;;;;;;64.30;12.32;;;26.80;89.30;;;;;;5086998;28;20020;-58
2022/06/10 12:49:29;;;;;;;58.28;11.48;;;26.90;89.20;;;;;;5086631;28;20048;-58
2022/06/10 12:52:25;;;;;;;55.83;11.55;;;26.90;89.00;;;;;;5081002;28;20036;-62
2022/06/10 12:58:39;;;;;;;42.70;10.25;;;27.00;89.30;;;;;;5086549;28;20217;-64
2022/06/10 13:01:21;;;;;;;48.22;10.68;;;27.00;89.30;;;;;;5086690;28;20016;-59
2022/06/10 13:03:53;;;;;;;48.15;10.82;;;27.00;89.30;;;;;;5086348;28;20024;-61
2022/06/10 13:06:26;;;;;;;48.67;11.20;;;27.10;89.50;;;;;;5086607;28;20020;-59
2022/06/10 13:09:06;;;;;;;40.55;10.32;;;27.10;89.30;;;;;;5086277;28;20381;-59
2022/06/10 13:11:47;;;;;;;38.88;9.95;;;27.10;89.50;;;;;;5086156;28;20320;-61
2022/06/10 13:14:35;;;;;;;38.85;9.60;;;27.10;89.30;;;;;;5086110;28;20048;-58
2022/06/10 13:17:17;;;;;;;41.83;9.95;;;27.10;89.60;;;;;;5085926;28;20049;-59
2022/06/10 13:20:21;;;;;;;41.45;10.48;;;27.20;89.80;;;;;;5086302;28;20021;-62
2022/06/10 13:23:23;;;;;;;38.40;10.02;;;27.20;90.00;;;;;;5084999;28;20095;-58
2022/06/10 13:26:12;;;;;;;39.13;9.70;;;27.20;89.70;;;;;;5064291;28;20056;-61
2022/06/10 13:28:43;;;;;;;41.10;9.65;;;27.30;89.80;;;;;;5085999;28;20031;-58
2022/06/10 13:31:16;;;;;;;39.03;9.82;;;27.30;89.60;;;;;;5086355;28;20012;-58
2022/06/10 13:33:58;;;;;;;43.40;10.23;;;27.30;89.00;;;;;;5085705;28;20216;-59
2022/06/10 13:36:37;;;;;;;41.03;9.68;;;27.40;89.40;;;;;;5086233;28;20084;-60
2022/06/10 13:39:07;;;;;;;43.10;9.65;;;27.40;89.30;;;;;;5085321;28;20032;-54